createdAt,value
2022-11-10T00:00:25.493Z,99017.13
2022-11-10T00:03:13.754Z,99006.84
2022-11-10T00:06:27.412Z,99011.75
2022-11-10T00:09:14.945Z,99017.00
2022-11-10T00:12:03.732Z,99022.00
2022-11-10T00:15:08.550Z,99024.69
2022-11-10T00:17:56.245Z,99027.13
2022-11-10T00:20:43.474Z,99032.47
2022-11-10T00:23:30.977Z,99033.19
2022-11-10T00:26:22.173Z,99034.47
2022-11-10T00:29:13.865Z,99038.75
2022-11-10T00:32:01.199Z,99035.88
2022-11-10T00:34:48.256Z,99044.13
2022-11-10T00:37:35.958Z,99046.81
2022-11-10T00:40:23.406Z,99042.16
2022-11-10T00:43:11.018Z,99048.34
2022-11-10T00:45:59.773Z,99051.47
2022-11-10T00:48:47.117Z,99049.47
2022-11-10T00:51:34.354Z,99058.81
2022-11-10T00:54:22.095Z,99051.81
2022-11-10T00:57:09.661Z,99062.41
2022-11-10T00:59:56.717Z,99075.81
2022-11-10T01:02:45.805Z,99075.91
2022-11-10T01:05:37.430Z,99084.75
2022-11-10T01:08:24.947Z,99083.56
2022-11-10T01:11:16.571Z,99085.22
2022-11-10T01:14:03.792Z,99093.25
2022-11-10T01:16:50.971Z,99101.28
2022-11-10T01:19:39.328Z,99101.28
2022-11-10T01:22:26.525Z,99100.16
2022-11-10T01:25:14.031Z,99103.41
2022-11-10T01:28:01.079Z,99099.06
2022-11-10T01:30:48.068Z,99105.72
2022-11-10T01:33:36.533Z,99104.06
2022-11-10T01:36:25.541Z,99093.81
2022-11-10T01:39:12.910Z,99106.97
2022-11-10T01:41:59.946Z,99107.19
2022-11-10T01:45:42.713Z,99107.63
2022-11-10T01:48:36.687Z,99109.75
2022-11-10T01:51:31.126Z,99116.13
2022-11-10T01:54:26.482Z,99119.06
2022-11-10T01:57:16.520Z,99123.31
2022-11-10T02:00:05.365Z,99121.69
2022-11-10T02:03:02.685Z,99121.06
2022-11-10T02:05:52.143Z,99120.94
2022-11-10T02:08:42.342Z,99122.44
2022-11-10T02:11:30.581Z,99120.34
2022-11-10T02:14:18.128Z,99118.41
2022-11-10T02:17:05.431Z,99126.44
2022-11-10T02:19:53.706Z,99126.00
2022-11-10T02:22:42.580Z,99122.13
2022-11-10T02:25:34.332Z,99123.84
2022-11-10T02:28:22.900Z,99126.59
2022-11-10T02:31:10.521Z,99139.81
2022-11-10T02:33:57.570Z,99143.75
2022-11-10T02:36:44.948Z,99144.16
2022-11-10T02:39:33.798Z,99154.63
2022-11-10T02:42:21.143Z,99159.56
2022-11-10T02:45:09.525Z,99166.56
2022-11-10T02:47:56.509Z,99167.00
2022-11-10T02:50:43.771Z,99181.91
2022-11-10T02:53:31.279Z,99186.03
2022-11-10T02:56:19.663Z,99192.25
2022-11-10T02:59:06.707Z,99188.91
2022-11-10T03:01:53.655Z,99198.84
2022-11-10T03:04:41.058Z,99209.59
2022-11-10T03:07:28.365Z,99209.59
2022-11-10T03:10:15.494Z,99216.56
2022-11-10T03:13:04.538Z,99218.03
2022-11-10T03:15:52.415Z,99217.28
2022-11-10T03:18:39.703Z,99218.72
2022-11-10T03:21:26.649Z,99218.53
2022-11-10T03:24:14.104Z,99229.22
2022-11-10T03:27:01.283Z,99233.09
2022-11-10T03:29:49.651Z,99231.66
2022-11-10T03:32:36.903Z,99236.44
2022-11-10T03:35:24.143Z,99235.97
2022-11-10T03:38:11.342Z,99241.31
2022-11-10T03:44:06.239Z,99242.81
2022-11-10T03:46:55.138Z,99254.16
2022-11-10T03:49:42.807Z,99251.69
2022-11-10T03:52:31.534Z,99256.88
2022-11-10T03:55:28.086Z,99256.69
2022-11-10T03:58:15.698Z,99270.88
2022-11-10T04:01:03.190Z,99268.78
2022-11-10T04:03:53.234Z,99275.56
2022-11-10T04:06:58.314Z,99277.63
2022-11-10T04:09:45.980Z,99282.59
2022-11-10T04:12:50.833Z,99287.09
2022-11-10T04:15:43.668Z,99281.78
2022-11-10T04:18:31.372Z,99282.81
2022-11-10T04:21:21.397Z,99294.09
2022-11-10T04:24:10.028Z,99299.66
2022-11-10T04:26:59.299Z,99307.25
2022-11-10T04:29:46.718Z,99307.03
2022-11-10T04:32:33.983Z,99305.22
2022-11-10T04:35:21.409Z,99304.06
2022-11-10T04:38:11.901Z,99305.09
2022-11-10T04:40:59.725Z,99303.22
2022-11-10T04:43:48.064Z,99312.88
2022-11-10T04:46:38.213Z,99318.66
2022-11-10T04:49:26.747Z,99319.28
2022-11-10T04:52:15.196Z,99317.03
2022-11-10T04:55:05.462Z,99321.63
2022-11-10T04:57:53.172Z,99332.28
2022-11-10T05:00:42.009Z,99337.19
2022-11-10T05:03:29.613Z,99339.88
2022-11-10T05:06:17.063Z,99340.69
2022-11-10T05:09:05.634Z,99346.69
2022-11-10T05:11:54.120Z,99350.16
2022-11-10T05:14:41.760Z,99347.72
2022-11-10T05:17:29.096Z,99360.00
2022-11-10T05:20:16.974Z,99366.59
2022-11-10T05:23:24.532Z,99365.56
2022-11-10T05:26:15.353Z,99364.94
2022-11-10T05:29:04.069Z,99368.41
2022-11-10T05:31:51.797Z,99371.72
2022-11-10T05:34:40.625Z,99379.31
2022-11-10T05:37:30.457Z,99374.81
2022-11-10T05:40:19.095Z,99378.09
2022-11-10T05:43:07.390Z,99377.69
2022-11-10T05:45:56.499Z,99377.25
2022-11-10T05:48:44.550Z,99387.94
2022-11-10T05:51:33.003Z,99393.28
2022-11-10T05:54:20.363Z,99398.59
2022-11-10T05:57:07.926Z,99407.25
2022-11-10T05:59:55.478Z,99406.22
2022-11-10T06:02:44.068Z,99411.97
2022-11-10T06:05:34.134Z,99412.78
2022-11-10T06:08:21.261Z,99422.03
2022-11-10T06:11:08.258Z,99421.66
2022-11-10T06:13:55.442Z,99430.25
2022-11-10T06:16:42.996Z,99428.63
2022-11-10T06:19:31.998Z,99438.28
2022-11-10T06:22:19.550Z,99447.91
2022-11-10T06:25:08.197Z,99455.72
2022-11-10T06:27:55.634Z,99457.38
2022-11-10T06:30:43.020Z,99466.41
2022-11-10T06:33:31.526Z,99470.28
2022-11-10T06:36:19.922Z,99484.88
2022-11-10T06:39:07.087Z,99494.94
2022-11-10T06:41:54.292Z,99503.13
2022-11-10T06:44:41.394Z,99510.31
2022-11-10T06:47:29.783Z,99522.22
2022-11-10T06:50:17.145Z,99526.72
2022-11-10T06:53:06.403Z,99541.09
2022-11-10T06:55:53.955Z,99546.44
2022-11-10T06:58:41.270Z,99545.41
2022-11-10T07:01:28.723Z,99555.06
2022-11-10T07:04:20.729Z,99564.09
2022-11-10T07:07:08.672Z,99563.28
2022-11-10T07:09:57.361Z,99560.22
2022-11-10T07:12:44.927Z,99568.00
2022-11-10T07:15:33.675Z,99574.34
2022-11-10T07:18:21.124Z,99580.09
2022-11-10T07:21:08.608Z,99583.78
2022-11-10T07:23:56.018Z,99594.84
2022-11-10T07:26:44.530Z,99598.97
2022-11-10T07:29:32.211Z,99604.50
2022-11-10T07:32:19.788Z,99610.84
2022-11-10T07:35:07.284Z,99614.97
2022-11-10T07:37:54.951Z,99614.13
2022-11-10T07:40:42.305Z,99623.34
2022-11-10T07:43:30.919Z,99628.44
2022-11-10T07:46:18.276Z,99630.69
2022-11-10T07:49:05.325Z,99630.84
2022-11-10T07:51:52.441Z,99635.75
2022-11-10T07:54:39.426Z,99636.78
2022-11-10T07:57:26.633Z,99637.34
2022-11-10T08:00:18.387Z,99644.94
2022-11-10T08:03:08.099Z,99646.31
2022-11-10T08:05:55.432Z,99644.28
2022-11-10T08:08:42.833Z,99642.38
2022-11-10T08:11:30.206Z,99653.31
2022-11-10T08:14:17.806Z,99663.34
2022-11-10T08:17:06.216Z,99661.88
2022-11-10T08:19:53.469Z,99667.84
2022-11-10T08:22:40.872Z,99666.19
2022-11-10T08:25:34.180Z,99675.88
2022-11-10T08:28:22.678Z,99676.88
2022-11-10T08:31:09.988Z,99676.22
2022-11-10T08:33:58.662Z,99684.84
2022-11-10T08:36:46.155Z,99688.56
2022-11-10T08:39:40.295Z,99694.75
2022-11-10T08:42:27.858Z,99698.47
2022-11-10T08:45:16.753Z,99702.56
2022-11-10T08:48:06.450Z,99706.06
2022-11-10T08:50:55.204Z,99706.81
2022-11-10T08:53:42.449Z,99710.22
2022-11-10T08:56:29.839Z,99720.69
2022-11-10T08:59:18.404Z,99722.16
2022-11-10T09:02:05.930Z,99724.81
2022-11-10T09:04:53.612Z,99729.53
2022-11-10T09:07:51.205Z,99734.84
2022-11-10T09:10:42.402Z,99742.63
2022-11-10T09:13:30.603Z,99742.19
2022-11-10T09:16:19.075Z,99745.81
2022-11-10T09:19:06.742Z,99746.00
2022-11-10T09:21:54.399Z,99750.06
2022-11-10T09:24:42.854Z,99749.59
2022-11-10T09:27:29.869Z,99755.78
2022-11-10T09:30:18.409Z,99759.03
2022-11-10T09:33:05.834Z,99755.31
2022-11-10T09:35:57.503Z,99755.53
2022-11-10T09:38:45.063Z,99768.50
2022-11-10T09:41:34.706Z,99771.22
2022-11-10T09:44:28.375Z,99775.13
2022-11-10T09:47:50.764Z,99777.53
2022-11-10T09:50:48.193Z,99793.59
2022-11-10T09:53:42.828Z,99794.59
2022-11-10T09:56:36.350Z,99798.53
2022-11-10T09:59:29.510Z,99790.56
2022-11-10T10:02:30.819Z,99801.91
2022-11-10T10:05:52.726Z,99804.16
2022-11-10T10:08:58.683Z,99804.31
2022-11-10T10:11:57.873Z,99802.22
2022-11-10T10:15:14.179Z,99810.63
2022-11-10T10:18:24.759Z,99806.72
2022-11-10T10:21:32.119Z,99800.47
2022-11-10T10:24:27.659Z,99804.56
2022-11-10T10:27:24.231Z,99794.88
2022-11-10T10:30:17.844Z,99799.97
2022-11-10T10:33:17.596Z,99809.88
2022-11-10T10:36:13.566Z,99799.78
2022-11-10T10:39:08.203Z,99806.66
2022-11-10T10:41:55.665Z,99807.47
2022-11-10T10:45:15.003Z,99805.03
2022-11-10T10:48:02.687Z,99800.41
2022-11-10T10:50:50.529Z,99799.97
2022-11-10T10:53:48.250Z,99804.91
2022-11-10T10:56:36.200Z,99804.03
2022-11-10T10:59:25.140Z,99799.72
2022-11-10T11:02:28.257Z,99802.75
2022-11-10T11:05:19.162Z,99796.09
2022-11-10T11:08:07.146Z,99794.38
2022-11-10T11:10:54.496Z,99797.50
2022-11-10T11:13:41.620Z,99798.72
2022-11-10T11:16:28.460Z,99798.09
2022-11-10T11:19:17.777Z,99800.56
2022-11-10T11:22:51.510Z,99810.09
2022-11-10T11:25:45.207Z,99810.03
2022-11-10T11:28:46.240Z,99813.59
2022-11-10T11:31:48.084Z,99822.28
2022-11-10T11:34:48.714Z,99823.56
2022-11-10T11:37:49.367Z,99821.06
2022-11-10T11:40:49.445Z,99824.38
2022-11-10T11:44:19.234Z,99826.66
2022-11-10T11:47:32.821Z,99822.19
2022-11-10T11:50:33.468Z,99820.28
2022-11-10T11:53:45.248Z,99828.16
2022-11-10T11:56:39.260Z,99825.25
2022-11-10T11:59:58.292Z,99827.28
2022-11-10T12:03:21.889Z,99824.34
2022-11-10T12:06:29.128Z,99831.00
2022-11-10T12:18:12.997Z,99838.44
2022-11-10T12:21:16.943Z,99835.31
2022-11-10T12:24:33.033Z,99828.63
2022-11-10T12:27:27.036Z,99836.06
2022-11-10T12:30:18.023Z,99836.28
2022-11-10T12:33:17.006Z,99839.41
2022-11-10T12:36:09.550Z,99841.19
2022-11-10T12:39:04.402Z,99841.88
2022-11-10T12:41:59.992Z,99848.06
2022-11-10T12:45:03.095Z,99846.94
2022-11-10T12:47:51.144Z,99849.88
2022-11-10T12:50:54.830Z,99845.56
2022-11-10T12:53:44.733Z,99838.34
2022-11-10T12:56:40.740Z,99843.91
2022-11-10T12:59:35.315Z,99846.88
2022-11-10T13:02:33.082Z,99853.28
2022-11-10T13:05:38.400Z,99848.28
2022-11-10T13:08:33.495Z,99852.25
2022-11-10T13:11:34.372Z,99855.69
2022-11-10T13:14:26.351Z,99850.78
2022-11-10T13:17:55.675Z,99855.25
2022-11-10T13:20:55.885Z,99861.84
2022-11-10T13:24:25.732Z,99871.19
2022-11-10T13:27:15.245Z,99863.72
2022-11-10T13:30:02.930Z,99863.31
2022-11-10T13:32:50.265Z,99865.16
2022-11-10T13:35:55.824Z,99871.34
2022-11-10T13:38:46.059Z,99867.63
2022-11-10T13:41:35.968Z,99874.63
2022-11-10T13:44:27.541Z,99878.38
2022-11-10T13:47:54.790Z,99894.88
2022-11-10T13:51:02.678Z,99889.81
2022-11-10T13:54:14.285Z,99898.69
2022-11-10T13:57:28.729Z,99903.22
2022-11-10T14:00:30.316Z,99896.22
2022-11-10T14:03:57.612Z,99898.91
2022-11-10T14:06:51.425Z,99901.66
2022-11-10T14:09:41.892Z,99902.06
2022-11-10T14:12:40.861Z,99903.34
2022-11-10T14:15:43.650Z,99920.31
2022-11-10T14:18:42.916Z,99917.41
2022-11-10T14:21:39.992Z,99927.31
2022-11-10T14:24:32.680Z,99920.72
2022-11-10T14:27:27.601Z,99925.31
2022-11-10T14:30:26.659Z,99934.19
2022-11-10T14:33:16.332Z,99931.13
2022-11-10T14:36:09.015Z,99936.69
2022-11-10T14:38:58.211Z,99946.00
2022-11-10T14:41:51.250Z,99952.41
2022-11-10T14:44:39.088Z,99961.69
2022-11-10T14:47:31.351Z,99963.56
2022-11-10T14:50:23.018Z,99966.06
2022-11-10T14:53:25.092Z,99976.19
2022-11-10T14:56:20.854Z,99972.03
2022-11-10T14:59:14.265Z,99970.41
2022-11-10T15:02:03.482Z,99965.19
2022-11-10T15:04:53.771Z,99962.50
2022-11-10T15:07:42.694Z,99972.03
2022-11-10T15:10:45.570Z,99969.19
2022-11-10T15:13:39.814Z,99972.94
2022-11-10T15:16:29.589Z,99982.44
2022-11-10T15:19:31.753Z,99983.69
2022-11-10T15:22:30.760Z,99991.75
2022-11-10T15:25:23.369Z,99999.41
2022-11-10T15:28:30.755Z,99996.94
2022-11-10T15:31:26.553Z,100007.25
2022-11-10T15:34:41.563Z,100004.38
2022-11-10T15:37:34.564Z,100016.75
2022-11-10T15:40:37.496Z,100014.72
2022-11-10T15:43:29.251Z,100014.53
2022-11-10T15:46:20.919Z,100013.50
2022-11-10T15:49:14.482Z,100028.97
2022-11-10T15:52:05.283Z,100029.63
2022-11-10T15:54:54.111Z,100029.19
2022-11-10T15:57:41.718Z,100037.44
2022-11-10T16:00:29.164Z,100043.63
2022-11-10T16:03:20.949Z,100047.34
2022-11-10T16:06:11.095Z,100047.13
2022-11-10T16:08:58.569Z,100046.94
2022-11-10T16:11:47.728Z,100042.81
2022-11-10T16:14:35.015Z,100049.81
2022-11-10T16:17:22.834Z,100062.19
2022-11-10T16:20:16.105Z,100072.22
2022-11-10T16:23:03.561Z,100072.44
2022-11-10T16:25:55.307Z,100074.06
2022-11-10T16:28:47.785Z,100072.44
2022-11-10T16:31:35.549Z,100070.78
2022-11-10T16:34:23.166Z,100073.84
2022-11-10T16:37:14.278Z,100084.16
2022-11-10T16:40:01.516Z,100094.22
2022-11-10T16:42:49.859Z,100099.78
2022-11-10T16:45:39.216Z,100107.81
2022-11-10T16:48:32.053Z,100095.84
2022-11-10T16:51:19.490Z,100099.78
2022-11-10T16:54:06.528Z,100101.19
2022-11-10T16:56:53.544Z,100106.97
2022-11-10T16:59:40.585Z,100104.88
2022-11-10T17:02:35.726Z,100108.16
2022-11-10T17:05:23.031Z,100109.38
2022-11-10T17:08:22.640Z,100121.28
2022-11-10T17:11:11.226Z,100116.75
2022-11-10T17:13:58.350Z,100119.84
2022-11-10T17:16:48.240Z,100118.81
2022-11-10T17:19:37.126Z,100116.09
2022-11-10T17:22:26.984Z,100124.34
2022-11-10T17:25:27.009Z,100118.34
2022-11-10T17:28:16.153Z,100125.75
2022-11-10T17:31:04.525Z,100130.44
2022-11-10T17:33:52.229Z,100131.03
2022-11-10T17:36:41.956Z,100133.91
2022-11-10T17:39:30.123Z,100143.78
2022-11-10T17:42:17.878Z,100129.78
2022-11-10T17:45:07.329Z,100148.47
2022-11-10T17:47:55.806Z,100145.78
2022-11-10T17:50:48.410Z,100149.03
2022-11-10T17:53:37.287Z,100156.19
2022-11-10T17:56:24.682Z,100154.09
2022-11-10T17:59:12.103Z,100162.16
2022-11-10T18:02:01.138Z,100158.44
2022-11-10T18:05:14.313Z,100158.84
2022-11-10T18:08:01.456Z,100157.22
2022-11-10T18:10:53.094Z,100165.22
2022-11-10T18:13:42.103Z,100159.44
2022-11-10T18:16:29.397Z,100153.81
2022-11-10T18:19:16.390Z,100167.81
2022-11-10T18:22:03.811Z,100168.44
2022-11-10T18:25:11.463Z,100170.06
2022-11-10T18:28:09.001Z,100160.03
2022-11-10T18:31:08.511Z,100169.00
2022-11-10T18:33:59.143Z,100177.22
2022-11-10T18:36:47.158Z,100183.03
2022-11-10T18:39:34.526Z,100182.19
2022-11-10T18:42:21.697Z,100187.91
2022-11-10T18:45:13.002Z,100195.94
2022-11-10T18:48:04.013Z,100190.59
2022-11-10T18:50:56.971Z,100186.00
2022-11-10T18:53:46.639Z,100191.16
2022-11-10T18:56:35.783Z,100194.84
2022-11-10T18:59:24.171Z,100203.44
2022-11-10T19:02:15.425Z,100212.22
2022-11-10T19:05:03.509Z,100202.81
2022-11-10T19:07:51.002Z,100198.50
2022-11-10T19:10:47.340Z,100195.81
2022-11-10T19:13:37.510Z,100200.53
2022-11-10T19:16:24.998Z,100205.75
2022-11-10T19:19:13.823Z,100204.75
2022-11-10T19:22:08.639Z,100197.97
2022-11-10T19:25:11.294Z,100197.09
2022-11-10T19:27:59.345Z,100201.16
2022-11-10T19:30:46.948Z,100201.81
2022-11-10T19:33:46.323Z,100202.84
2022-11-10T19:37:00.703Z,100216.34
2022-11-10T19:39:55.277Z,100199.97
2022-11-10T19:42:42.405Z,100206.66
2022-11-10T19:45:37.109Z,100211.88
2022-11-10T19:48:24.394Z,100214.66
2022-11-10T19:51:13.998Z,100203.41
2022-11-10T19:54:05.195Z,100204.16
2022-11-10T19:56:52.704Z,100206.66
2022-11-10T19:59:41.292Z,100215.38
2022-11-10T20:02:28.882Z,100223.69
2022-11-10T20:05:21.143Z,100224.03
2022-11-10T20:08:22.677Z,100228.94
2022-11-10T20:12:12.681Z,100230.50
2022-11-10T20:15:05.606Z,100229.22
2022-11-10T20:17:53.391Z,100232.53
2022-11-10T20:20:46.875Z,100226.75
2022-11-10T20:23:36.823Z,100232.44
2022-11-10T20:26:26.224Z,100239.00
2022-11-10T20:29:14.966Z,100241.47
2022-11-10T20:32:02.436Z,100240.28
2022-11-10T20:34:50.792Z,100244.72
2022-11-10T20:37:38.363Z,100248.38
2022-11-10T20:40:43.602Z,100264.03
2022-11-10T20:43:36.243Z,100275.72
2022-11-10T20:46:52.919Z,100266.25
2022-11-10T20:49:32.660Z,100273.69
2022-11-10T20:52:20.160Z,100277.56
2022-11-10T20:55:08.291Z,100260.19
2022-11-10T20:57:57.033Z,100247.50
2022-11-10T21:00:46.232Z,100247.59
2022-11-10T21:03:37.104Z,100242.00
2022-11-10T21:06:24.371Z,100244.94
2022-11-10T21:09:13.535Z,100242.28
2022-11-10T21:12:32.594Z,100230.44
2022-11-10T21:15:21.698Z,100243.97
2022-11-10T21:18:08.866Z,100247.16
2022-11-10T21:20:57.630Z,100246.97
2022-11-10T21:23:45.232Z,100255.06
2022-11-10T21:26:34.274Z,100245.41
2022-11-10T21:29:21.844Z,100253.13
2022-11-10T21:32:09.066Z,100240.19
2022-11-10T21:34:56.257Z,100245.53
2022-11-10T21:37:45.099Z,100245.53
2022-11-10T21:40:32.721Z,100259.84
2022-11-10T21:43:20.225Z,100248.81
2022-11-10T21:46:07.849Z,100262.63
2022-11-10T21:48:55.025Z,100261.88
2022-11-10T21:51:42.606Z,100267.41
2022-11-10T21:54:31.394Z,100268.88
2022-11-10T21:57:18.705Z,100273.38
2022-11-10T22:00:07.413Z,100275.22
2022-11-10T22:02:59.644Z,100274.19
2022-11-10T22:05:47.248Z,100281.19
2022-11-10T22:08:34.852Z,100276.59
2022-11-10T22:11:40.836Z,100276.59
2022-11-10T22:14:45.046Z,100276.69
2022-11-10T22:17:50.013Z,100278.53
2022-11-10T22:20:37.027Z,100277.41
2022-11-10T22:23:44.512Z,100288.72
2022-11-10T22:26:33.182Z,100294.34
2022-11-10T22:29:20.803Z,100311.88
2022-11-10T22:32:07.661Z,100323.19
2022-11-10T22:34:54.712Z,100321.19
2022-11-10T22:37:42.123Z,100302.97
2022-11-10T22:40:46.575Z,100314.31
2022-11-10T22:43:52.345Z,100305.00
2022-11-10T22:46:41.476Z,100312.81
2022-11-10T22:49:28.691Z,100301.97
2022-11-10T22:52:16.474Z,100301.69
2022-11-10T22:55:03.467Z,100300.84
2022-11-10T22:57:55.770Z,100304.72
2022-11-10T23:00:47.217Z,100303.88
2022-11-10T23:03:35.335Z,100304.97
2022-11-10T23:06:24.037Z,100311.88
2022-11-10T23:09:11.603Z,100302.91
2022-11-10T23:11:59.343Z,100307.31
2022-11-10T23:14:47.825Z,100306.19
2022-11-10T23:17:36.626Z,100314.25
2022-11-10T23:20:24.236Z,100299.63
2022-11-10T23:23:11.396Z,100304.25
2022-11-10T23:26:00.781Z,100294.97
2022-11-10T23:28:48.351Z,100290.06
2022-11-10T23:31:35.337Z,100296.97
2022-11-10T23:34:24.239Z,100304.75
2022-11-10T23:37:11.404Z,100309.44
2022-11-10T23:39:58.955Z,100313.63
2022-11-10T23:42:47.039Z,100316.22
2022-11-10T23:46:04.804Z,100316.00
2022-11-10T23:48:42.592Z,100314.75
2022-11-10T23:51:31.387Z,100317.72
2022-11-10T23:54:19.723Z,100320.19
2022-11-10T23:57:06.967Z,100325.72
2022-11-10T23:59:54.041Z,100327.59
